createdAt,value
2019-04-29T00:04:12.483Z,88.88
2019-04-29T00:09:18.970Z,89.78
2019-04-29T00:14:24.831Z,90.41
2019-04-29T00:19:45.521Z,90.55
2019-04-29T00:29:58.150Z,89.48
2019-04-29T00:35:04.018Z,90.60
2019-04-29T00:40:30.754Z,89.98
2019-04-29T00:45:36.476Z,89.49
2019-04-29T00:50:41.760Z,89.09
2019-04-29T00:55:48.741Z,89.15
2019-04-29T01:00:54.239Z,88.76
2019-04-29T01:05:59.650Z,88.60
2019-04-29T01:11:05.306Z,88.34
2019-04-29T01:16:10.741Z,89.09
2019-04-29T01:21:16.127Z,90.65
2019-04-29T01:26:33.946Z,90.92
2019-04-29T01:31:39.411Z,90.67
2019-04-29T01:36:46.035Z,91.53
2019-04-29T01:42:03.711Z,92.57
2019-04-29T01:47:25.326Z,93.72
2019-04-29T01:52:55.993Z,94.21
2019-04-29T01:58:15.235Z,93.42
2019-04-29T02:03:37.659Z,92.22
2019-04-29T02:08:55.839Z,91.81
2019-04-29T02:14:31.435Z,91.79
2019-04-29T02:19:58.583Z,91.67
2019-04-29T02:25:27.007Z,92.27
2019-04-29T02:30:58.743Z,91.75
2019-04-29T02:36:30.427Z,91.31
2019-04-29T02:42:00.864Z,92.82
2019-04-29T02:47:23.598Z,93.97
2019-04-29T02:52:46.520Z,95.35
2019-04-29T02:58:18.780Z,96.29
2019-04-29T03:04:04.259Z,97.00
2019-04-29T03:09:45.253Z,97.19
2019-04-29T03:14:57.467Z,97.74
2019-04-29T03:20:43.034Z,98.48
2019-04-29T03:26:05.968Z,98.83
2019-04-29T03:31:23.284Z,99.27
2019-04-29T03:36:48.444Z,99.61
2019-04-29T03:42:09.800Z,100.00
2019-04-29T03:47:38.316Z,100.00
2019-04-29T03:52:56.609Z,100.00
2019-04-29T03:58:19.211Z,99.84
2019-04-29T04:03:46.276Z,99.66
2019-04-29T04:09:24.392Z,100.00
2019-04-29T04:14:44.266Z,100.00
2019-04-29T04:20:20.883Z,100.00
2019-04-29T04:25:45.707Z,100.00
2019-04-29T04:31:06.733Z,99.68
2019-04-29T04:36:24.394Z,100.00
2019-04-29T04:41:46.091Z,100.00
2019-04-29T04:47:04.493Z,99.86
2019-04-29T04:52:26.960Z,98.75
2019-04-29T04:57:53.624Z,97.80
2019-04-29T05:03:21.263Z,97.40
2019-04-29T05:08:47.870Z,97.34
2019-04-29T05:14:10.378Z,96.82
2019-04-29T05:19:42.668Z,96.58
2019-04-29T05:25:12.423Z,96.73
2019-04-29T05:30:31.786Z,96.44
2019-04-29T05:36:09.774Z,96.34
2019-04-29T05:41:47.569Z,96.21
2019-04-29T05:47:13.981Z,96.11
2019-04-29T05:52:54.683Z,95.96
2019-04-29T05:58:27.398Z,95.87
2019-04-29T06:04:06.148Z,96.64
2019-04-29T06:09:32.988Z,96.86
2019-04-29T06:14:59.205Z,96.99
2019-04-29T06:20:25.640Z,97.87
2019-04-29T06:25:34.506Z,97.89
2019-04-29T06:30:53.318Z,99.05
2019-04-29T06:36:22.853Z,100.00
2019-04-29T06:41:45.320Z,99.61
2019-04-29T06:47:03.944Z,99.74
2019-04-29T06:52:22.641Z,100.00
2019-04-29T06:57:46.370Z,100.00
2019-04-29T07:03:12.507Z,100.00
2019-04-29T07:08:34.163Z,100.00
2019-04-29T07:13:59.233Z,100.00
2019-04-29T07:19:26.583Z,100.00
2019-04-29T07:24:35.867Z,100.00
2019-04-29T07:30:09.395Z,100.00
2019-04-29T07:35:27.654Z,100.00
2019-04-29T07:40:53.504Z,100.00
2019-04-29T07:46:28.311Z,100.00
2019-04-29T07:51:34.890Z,100.00
2019-04-29T07:57:12.460Z,100.00
2019-04-29T08:03:10.202Z,100.00
2019-04-29T08:08:21.372Z,100.00
2019-04-29T08:13:28.897Z,100.00
2019-04-29T08:18:44.676Z,100.00
2019-04-29T08:24:15.428Z,100.00
2019-04-29T08:29:21.595Z,100.00
2019-04-29T08:34:40.947Z,100.00
2019-04-29T08:40:03.477Z,100.00
2019-04-29T08:45:15.563Z,100.00
2019-04-29T08:50:50.442Z,100.00
2019-04-29T08:56:01.339Z,100.00
2019-04-29T09:01:35.888Z,100.00
2019-04-29T09:07:12.850Z,100.00
2019-04-29T09:12:24.211Z,100.00
2019-04-29T09:18:03.878Z,100.00
2019-04-29T09:23:12.534Z,100.00
2019-04-29T09:28:28.152Z,100.00
2019-04-29T09:34:06.641Z,100.00
2019-04-29T09:40:09.598Z,100.00
2019-04-29T09:45:40.475Z,100.00
2019-04-29T09:51:29.693Z,100.00
2019-04-29T09:57:02.406Z,100.00
2019-04-29T10:02:18.716Z,100.00
2019-04-29T10:07:49.731Z,100.00
2019-04-29T10:12:56.897Z,100.00
2019-04-29T10:18:09.304Z,100.00
2019-04-29T10:23:16.750Z,100.00
2019-04-29T10:28:24.624Z,100.00
2019-04-29T10:33:33.797Z,100.00
2019-04-29T10:38:40.400Z,100.00
2019-04-29T10:44:44.085Z,100.00
2019-04-29T10:49:58.044Z,100.00
2019-04-29T10:55:15.622Z,100.00
2019-04-29T11:00:52.735Z,100.00
2019-04-29T11:12:00.771Z,99.98
2019-04-29T11:18:03.549Z,100.00
2019-04-29T11:23:22.779Z,100.00
2019-04-29T11:28:58.929Z,100.00
2019-04-29T11:34:33.246Z,100.00
2019-04-29T11:39:51.717Z,100.00
2019-04-29T11:45:20.674Z,99.50
2019-04-29T11:51:02.239Z,98.63
2019-04-29T11:56:23.171Z,98.37
2019-04-29T12:02:05.687Z,99.52
2019-04-29T12:07:32.594Z,99.05
2019-04-29T12:12:47.714Z,100.00
2019-04-29T12:18:23.828Z,100.00
2019-04-29T12:23:52.001Z,100.00
2019-04-29T12:29:09.510Z,100.00
2019-04-29T12:34:39.228Z,100.00
2019-04-29T12:39:54.397Z,100.00
2019-04-29T12:45:30.941Z,100.00
2019-04-29T12:50:57.614Z,100.00
2019-04-29T12:56:16.988Z,100.00
2019-04-29T13:01:58.837Z,100.00
2019-04-29T13:07:43.308Z,100.00
2019-04-29T13:12:52.359Z,100.00
2019-04-29T13:18:32.589Z,100.00
2019-04-29T13:24:13.847Z,100.00
2019-04-29T13:29:26.782Z,100.00
2019-04-29T13:34:56.019Z,100.00
2019-04-29T13:40:23.703Z,100.00
2019-04-29T13:45:58.660Z,100.00
2019-04-29T13:51:35.758Z,100.00
2019-04-29T13:56:55.281Z,100.00
2019-04-29T14:02:16.459Z,100.00
2019-04-29T14:07:39.625Z,100.00
2019-04-29T14:13:09.750Z,100.00
2019-04-29T14:18:27.628Z,98.38
2019-04-29T14:23:52.021Z,97.20
2019-04-29T14:29:11.890Z,97.04
2019-04-29T14:34:44.695Z,97.81
2019-04-29T14:40:09.426Z,97.91
2019-04-29T14:45:34.167Z,97.48
2019-04-29T14:51:05.302Z,95.23
2019-04-29T14:56:34.756Z,92.60
2019-04-29T15:01:48.904Z,93.76
2019-04-29T15:07:15.916Z,95.09
2019-04-29T15:12:51.022Z,94.90
2019-04-29T15:18:15.480Z,95.46
2019-04-29T15:23:29.413Z,95.32
2019-04-29T15:28:59.499Z,93.40
2019-04-29T15:34:09.019Z,95.22
2019-04-29T15:39:28.563Z,95.17
2019-04-29T15:44:55.884Z,94.26
2019-04-29T15:50:26.669Z,95.08
2019-04-29T15:56:06.167Z,94.14
2019-04-29T16:01:18.231Z,96.11
2019-04-29T16:06:58.549Z,97.14
2019-04-29T16:12:15.412Z,98.21
2019-04-29T16:17:38.124Z,97.50
2019-04-29T16:22:41.420Z,97.58
2019-04-29T16:28:05.110Z,96.05
2019-04-29T16:33:30.069Z,96.66
2019-04-29T16:43:53.616Z,96.33
2019-04-29T16:48:59.171Z,97.18
2019-04-29T16:54:04.808Z,96.60
2019-04-29T16:59:10.455Z,97.52
2019-04-29T17:04:15.956Z,98.70
2019-04-29T17:09:29.987Z,99.22
2019-04-29T17:19:42.909Z,100.00
2019-04-29T17:24:48.806Z,100.00
2019-04-29T17:30:07.538Z,100.00
2019-04-29T17:35:17.897Z,100.00
2019-04-29T17:35:19.683Z,100.00
2019-04-29T17:40:23.768Z,100.00
2019-04-29T17:45:37.122Z,100.00
2019-04-29T17:50:48.085Z,100.00
2019-04-29T17:56:00.037Z,100.00
2019-04-29T18:01:07.912Z,100.00
2019-04-29T18:06:24.456Z,100.00
2019-04-29T18:11:26.277Z,100.00
2019-04-29T18:16:39.558Z,100.00
2019-04-29T18:22:03.994Z,100.00
2019-04-29T18:27:15.315Z,100.00
2019-04-29T18:32:32.873Z,100.00
2019-04-29T18:37:30.430Z,100.00
2019-04-29T18:42:38.375Z,100.00
2019-04-29T18:47:43.009Z,100.00
2019-04-29T18:52:48.467Z,100.00
2019-04-29T18:57:56.462Z,100.00
2019-04-29T19:03:01.284Z,100.00
2019-04-29T19:08:14.013Z,100.00
2019-04-29T19:13:16.606Z,100.00
2019-04-29T19:18:21.364Z,100.00
2019-04-29T19:23:29.623Z,100.00
2019-04-29T19:28:34.694Z,100.00
2019-04-29T19:33:41.969Z,100.00
2019-04-29T19:38:47.491Z,100.00
2019-04-29T19:43:55.244Z,100.00
2019-04-29T19:49:08.036Z,100.00
2019-04-29T19:54:07.768Z,100.00
2019-04-29T19:59:14.771Z,100.00
2019-04-29T20:04:30.698Z,100.00
2019-04-29T20:09:38.317Z,100.00
2019-04-29T20:14:44.298Z,100.00
2019-04-29T20:20:00.090Z,100.00
2019-04-29T20:25:06.019Z,100.00
2019-04-29T20:30:18.862Z,100.00
2019-04-29T20:35:18.700Z,100.00
2019-04-29T20:40:26.824Z,100.00
2019-04-29T20:45:35.383Z,100.00
2019-04-29T20:50:41.311Z,100.00
2019-04-29T20:55:48.530Z,100.00
2019-04-29T21:00:58.175Z,100.00
2019-04-29T21:06:03.138Z,100.00
2019-04-29T21:11:20.836Z,100.00
2019-04-29T21:16:29.171Z,100.00
2019-04-29T21:21:36.772Z,100.00
2019-04-29T21:26:44.613Z,100.00
2019-04-29T21:31:50.797Z,100.00
2019-04-29T21:37:06.647Z,100.00
2019-04-29T21:42:20.027Z,100.00
2019-04-29T21:47:28.239Z,100.00
2019-04-29T21:52:32.953Z,100.00
2019-04-29T21:57:38.408Z,100.00
2019-04-29T22:02:46.632Z,100.00
2019-04-29T22:07:51.248Z,100.00
2019-04-29T22:13:01.975Z,100.00
2019-04-29T22:18:07.234Z,100.00
2019-04-29T22:23:13.096Z,100.00
2019-04-29T22:28:19.852Z,100.00
2019-04-29T22:33:29.448Z,100.00
2019-04-29T22:38:32.508Z,100.00
2019-04-29T22:43:45.804Z,100.00
2019-04-29T22:48:51.576Z,100.00
2019-04-29T22:53:57.034Z,100.00
2019-04-29T22:59:02.408Z,100.00
2019-04-29T23:04:09.654Z,100.00
2019-04-29T23:09:14.895Z,100.00
2019-04-29T23:14:21.297Z,100.00
2019-04-29T23:19:26.869Z,100.00
2019-04-29T23:24:41.057Z,100.00
2019-04-29T23:29:46.556Z,100.00
2019-04-29T23:34:55.005Z,100.00
2019-04-29T23:40:01.226Z,100.00
2019-04-29T23:45:07.350Z,100.00
2019-04-29T23:50:14.013Z,100.00
2019-04-29T23:55:20.526Z,100.00
